Time;durP1;ratioP1;P1;durP2;ratioP2;P2;SDS_P1;SDS_P2;PMS_P1;PMS_P2;Temp;Humidity;BMP_temperature;BMP_pressure;BME280_temperature;BME280_humidity;BME280_pressure;Samples;Min_cycle;Max_cycle;Signal;HPM_P1;HPM_P2
2023/04/24 00:00:25;;;;;;;1.83;1.40;;;10.90;99.90;;;;;;4973893;28;20082;-62
2023/04/24 00:03:20;;;;;;;1.95;1.50;;;10.80;99.90;;;;;;4965965;28;20047;-61
2023/04/24 00:06:07;;;;;;;1.85;1.45;;;10.90;99.90;;;;;;4950375;28;20383;-61
2023/04/24 00:08:47;;;;;;;1.98;1.77;;;10.80;99.90;;;;;;4971278;28;20150;-64
2023/04/24 00:11:33;;;;;;;1.95;1.70;;;10.70;99.90;;;;;;5006739;28;20057;-63
2023/04/24 00:14:13;;;;;;;1.95;1.75;;;10.70;99.90;;;;;;5006913;28;20139;-63
2023/04/24 00:16:59;;;;;;;2.03;1.83;;;10.70;99.90;;;;;;5001123;28;20061;-63
2023/04/24 00:19:39;;;;;;;2.20;1.92;;;10.70;99.90;;;;;;4978017;28;20112;-61
2023/04/24 00:22:32;;;;;;;2.72;1.88;;;10.70;99.90;;;;;;4984967;28;20069;-65
2023/04/24 00:25:18;;;;;;;2.90;2.08;;;10.70;99.90;;;;;;4969496;28;20248;-61
2023/04/24 00:27:58;;;;;;;2.40;1.98;;;10.70;99.90;;;;;;4970062;28;20153;-61
2023/04/24 00:30:45;;;;;;;2.47;2.08;;;10.60;99.90;;;;;;4969157;28;20061;-62
2023/04/24 00:33:25;;;;;;;2.55;2.33;;;10.70;99.90;;;;;;4960872;28;20147;-61
2023/04/24 00:36:11;;;;;;;2.50;2.30;;;10.60;99.90;;;;;;4982624;28;20114;-63
2023/04/24 00:38:51;;;;;;;3.47;2.50;;;10.60;99.90;;;;;;4969418;28;20074;-61
2023/04/24 00:41:37;;;;;;;3.83;2.40;;;10.60;99.90;;;;;;4986745;28;20247;-63
2023/04/24 00:44:17;;;;;;;3.10;2.80;;;10.70;99.90;;;;;;4986865;28;20080;-63
2023/04/24 00:47:03;;;;;;;3.00;2.67;;;10.70;99.90;;;;;;4997983;28;20050;-61
2023/04/24 00:49:43;;;;;;;3.00;2.67;;;10.70;99.90;;;;;;4975568;28;20218;-61
2023/04/24 00:52:31;;;;;;;3.20;2.90;;;10.70;99.90;;;;;;4968795;28;20069;-61
2023/04/24 00:55:11;;;;;;;3.42;3.13;;;10.70;99.90;;;;;;4969254;28;20096;-61
2023/04/24 00:57:58;;;;;;;3.40;3.10;;;10.60;99.90;;;;;;4986562;28;20054;-61
2023/04/24 01:00:38;;;;;;;4.13;3.72;;;10.70;99.90;;;;;;4969992;28;20065;-62
2023/04/24 01:03:28;;;;;;;3.53;3.22;;;10.60;99.90;;;;;;4973398;28;20121;-63
2023/04/24 01:06:08;;;;;;;4.22;3.67;;;10.70;99.90;;;;;;4966338;28;20090;-63
2023/04/24 01:08:55;;;;;;;4.47;3.63;;;10.60;99.90;;;;;;4967280;28;20062;-63
2023/04/24 01:11:36;;;;;;;4.03;3.45;;;10.70;99.90;;;;;;4969135;28;20147;-63
2023/04/24 01:14:23;;;;;;;3.75;3.35;;;10.60;99.90;;;;;;4967169;28;20054;-62
2023/04/24 01:17:02;;;;;;;3.38;3.08;;;10.70;99.90;;;;;;4967485;28;20125;-61
2023/04/24 01:19:48;;;;;;;3.50;3.20;;;10.60;99.90;;;;;;4966479;28;20109;-61
2023/04/24 01:22:28;;;;;;;3.63;3.33;;;10.60;99.90;;;;;;4990595;28;20137;-63
2023/04/24 01:25:14;;;;;;;4.13;3.72;;;10.50;99.90;;;;;;4988520;28;20064;-61
2023/04/24 01:27:54;;;;;;;4.82;4.43;;;10.60;99.90;;;;;;4988578;28;20136;-64
2023/04/24 01:30:41;;;;;;;4.35;3.55;;;10.50;99.90;;;;;;4971177;28;20153;-62
2023/04/24 01:33:20;;;;;;;3.75;3.45;;;10.60;99.90;;;;;;4985588;28;20355;-62
2023/04/24 01:36:07;;;;;;;4.68;4.13;;;10.50;99.90;;;;;;4999978;28;20054;-61
2023/04/24 01:38:47;;;;;;;4.57;4.18;;;10.40;99.90;;;;;;4969474;28;20086;-62
2023/04/24 01:41:34;;;;;;;3.42;3.13;;;10.40;99.90;;;;;;4987727;28;20049;-60
2023/04/24 01:44:14;;;;;;;3.78;3.47;;;10.40;99.90;;;;;;5005712;28;20057;-62
2023/04/24 01:47:01;;;;;;;3.70;3.40;;;10.30;99.90;;;;;;5005291;28;20384;-62
2023/04/24 01:49:40;;;;;;;4.82;3.22;;;10.30;99.90;;;;;;4978361;28;20145;-63
2023/04/24 01:52:28;;;;;;;3.40;3.10;;;10.40;99.90;;;;;;4987447;28;20041;-63
2023/04/24 01:55:11;;;;;;;3.28;2.97;;;10.40;99.90;;;;;;4988171;28;20073;-61
2023/04/24 01:58:00;;;;;;;3.67;3.00;;;10.30;99.90;;;;;;4989503;28;20068;-62
2023/04/24 02:00:39;;;;;;;3.28;2.97;;;10.30;99.90;;;;;;4992454;28;20068;-64
2023/04/24 02:03:26;;;;;;;2.60;2.40;;;10.40;99.90;;;;;;4989087;28;20049;-61
2023/04/24 02:06:06;;;;;;;3.28;2.97;;;10.30;99.90;;;;;;4989518;28;20513;-62
2023/04/24 02:08:53;;;;;;;2.67;2.42;;;10.30;99.90;;;;;;4973123;28;20050;-62
2023/04/24 02:11:32;;;;;;;2.85;2.50;;;10.30;99.90;;;;;;5008775;28;20125;-61
2023/04/24 02:14:18;;;;;;;2.42;2.22;;;10.30;99.90;;;;;;5009210;28;20210;-61
2023/04/24 02:16:58;;;;;;;2.58;2.38;;;10.20;99.90;;;;;;5009430;28;20068;-63
2023/04/24 02:19:45;;;;;;;2.42;2.08;;;10.20;99.90;;;;;;5001655;28;20164;-63
2023/04/24 02:22:25;;;;;;;2.60;2.30;;;10.20;99.90;;;;;;4990705;28;20164;-62
2023/04/24 02:25:11;;;;;;;3.25;2.60;;;10.20;99.90;;;;;;4991142;28;20065;-62
2023/04/24 02:27:51;;;;;;;2.70;2.13;;;10.20;99.90;;;;;;5009121;28;20476;-63
2023/04/24 02:30:37;;;;;;;2.55;1.92;;;10.30;99.90;;;;;;4992725;28;20420;-63
2023/04/24 02:33:18;;;;;;;3.50;2.30;;;10.20;99.90;;;;;;4971214;28;20458;-61
2023/04/24 02:36:04;;;;;;;2.90;1.90;;;10.10;99.90;;;;;;4989043;28;20057;-62
2023/04/24 02:38:44;;;;;;;2.45;1.75;;;10.20;99.90;;;;;;4972097;28;20161;-62
2023/04/24 02:41:32;;;;;;;3.28;2.03;;;10.10;99.90;;;;;;4988485;28;20065;-62
2023/04/24 02:44:12;;;;;;;1.88;1.63;;;10.20;99.90;;;;;;4989198;28;20138;-63
2023/04/24 02:46:58;;;;;;;2.90;1.80;;;10.20;99.90;;;;;;4988965;28;20153;-61
2023/04/24 02:49:38;;;;;;;1.90;1.67;;;10.20;99.90;;;;;;4995260;28;20148;-62
2023/04/24 02:52:24;;;;;;;3.22;2.08;;;10.20;99.90;;;;;;4990757;28;20053;-62
2023/04/24 02:55:04;;;;;;;2.00;1.80;;;10.20;99.90;;;;;;5008749;28;20454;-61
2023/04/24 02:57:50;;;;;;;2.20;2.00;;;10.00;99.90;;;;;;5008785;28;20064;-62
2023/04/24 03:00:30;;;;;;;2.80;2.00;;;10.10;99.90;;;;;;4993406;28;20093;-61
2023/04/24 03:03:18;;;;;;;2.83;1.70;;;10.00;99.90;;;;;;4988567;28;20120;-61
2023/04/24 03:06:00;;;;;;;2.20;1.77;;;10.10;99.90;;;;;;4988434;28;20050;-62
2023/04/24 03:08:46;;;;;;;2.20;1.70;;;10.00;99.90;;;;;;4988292;28;20081;-62
2023/04/24 03:11:26;;;;;;;2.30;1.85;;;10.00;99.90;;;;;;4968764;28;20246;-63
2023/04/24 03:14:12;;;;;;;2.60;1.55;;;10.10;99.90;;;;;;4969006;28;20061;-63
2023/04/24 03:16:52;;;;;;;1.80;1.52;;;10.10;99.90;;;;;;4969151;28;20086;-62
2023/04/24 03:19:39;;;;;;;3.47;2.00;;;10.10;99.90;;;;;;4975626;28;20153;-63
2023/04/24 03:22:18;;;;;;;2.20;1.95;;;10.20;99.90;;;;;;4987948;28;20108;-63
2023/04/24 03:25:05;;;;;;;2.25;1.90;;;10.20;99.90;;;;;;4968960;28;20066;-61
2023/04/24 03:27:45;;;;;;;1.80;1.33;;;10.10;99.90;;;;;;4968704;28;20308;-60
2023/04/24 03:30:31;;;;;;;2.50;1.75;;;10.20;99.90;;;;;;4981940;28;20105;-61
2023/04/24 03:33:11;;;;;;;2.20;1.30;;;10.20;99.90;;;;;;4988126;28;20129;-60
2023/04/24 03:35:57;;;;;;;1.45;1.10;;;10.10;99.90;;;;;;4970319;28;20070;-66
2023/04/24 03:38:37;;;;;;;2.00;0.95;;;10.10;99.90;;;;;;4967221;28;20138;-64
2023/04/24 03:41:23;;;;;;;1.13;0.90;;;10.00;99.90;;;;;;4949117;29;20055;-63
2023/04/24 03:44:03;;;;;;;1.20;1.00;;;10.00;99.90;;;;;;4949249;29;20094;-63
2023/04/24 03:46:49;;;;;;;1.83;0.90;;;9.90;99.90;;;;;;4949109;29;20081;-64
2023/04/24 03:49:29;;;;;;;0.70;0.70;;;9.90;99.90;;;;;;4956248;28;20416;-62
2023/04/24 03:52:15;;;;;;;0.73;0.73;;;9.70;99.90;;;;;;4968145;28;20057;-64
2023/04/24 03:54:55;;;;;;;0.98;0.88;;;9.60;99.90;;;;;;4968466;28;20130;-62
2023/04/24 03:57:41;;;;;;;1.30;1.15;;;9.60;99.90;;;;;;4967951;28;20051;-62
2023/04/24 04:00:21;;;;;;;2.13;0.85;;;9.50;99.90;;;;;;4970922;28;20470;-60
2023/04/24 04:03:07;;;;;;;2.38;1.20;;;9.60;99.90;;;;;;4965302;28;20490;-62
2023/04/24 04:05:47;;;;;;;1.45;1.00;;;9.60;99.90;;;;;;4964357;28;20341;-61
2023/04/24 04:08:33;;;;;;;1.63;1.42;;;9.60;99.90;;;;;;4965592;28;20062;-64
2023/04/24 04:11:13;;;;;;;1.67;1.23;;;9.60;99.90;;;;;;4966814;28;20105;-63
2023/04/24 04:13:59;;;;;;;3.42;1.40;;;9.40;99.90;;;;;;4966431;28;20058;-62
2023/04/24 04:16:39;;;;;;;1.83;1.48;;;9.50;99.90;;;;;;4965448;28;20085;-64
2023/04/24 04:19:25;;;;;;;2.72;1.55;;;9.50;99.90;;;;;;4972607;28;20042;-62
2023/04/24 04:22:05;;;;;;;1.80;1.33;;;9.50;99.90;;;;;;4967239;28;20047;-62
2023/04/24 04:24:58;;;;;;;1.50;1.40;;;9.40;99.90;;;;;;4986886;28;20061;-59
2023/04/24 04:27:47;;;;;;;2.20;1.60;;;9.50;99.90;;;;;;4986585;28;20338;-61
2023/04/24 04:30:29;;;;;;;5.68;2.42;;;9.50;99.90;;;;;;4986465;28;20210;-59
2023/04/24 04:33:14;;;;;;;4.53;3.17;;;9.60;99.90;;;;;;4987252;28;20077;-62
2023/04/24 04:35:56;;;;;;;3.70;3.28;;;9.70;99.90;;;;;;4986027;28;20050;-63
2023/04/24 04:38:44;;;;;;;5.63;3.60;;;9.90;99.90;;;;;;4986406;28;20387;-61
2023/04/24 04:41:24;;;;;;;4.85;4.32;;;10.00;99.90;;;;;;4967075;28;20038;-62
2023/04/24 04:44:10;;;;;;;5.30;4.10;;;10.10;99.90;;;;;;4985484;28;20038;-64
2023/04/24 04:46:53;;;;;;;5.45;4.22;;;10.00;99.90;;;;;;4985012;28;20137;-62
2023/04/24 04:49:38;;;;;;;5.47;3.97;;;10.20;99.90;;;;;;4984939;28;20109;-62
2023/04/24 04:52:18;;;;;;;4.93;3.50;;;10.00;99.90;;;;;;4984006;28;20152;-61
2023/04/24 04:55:05;;;;;;;4.57;3.83;;;10.10;99.90;;;;;;4984556;28;20065;-62
2023/04/24 04:57:45;;;;;;;5.03;3.55;;;10.10;99.90;;;;;;4984564;28;20057;-59
2023/04/24 05:00:35;;;;;;;6.05;3.38;;;10.00;99.90;;;;;;4986503;28;20050;-64
2023/04/24 05:03:15;;;;;;;5.47;3.97;;;10.10;99.90;;;;;;4987164;28;20089;-63
2023/04/24 05:06:02;;;;;;;5.85;3.70;;;10.20;99.90;;;;;;4986033;28;20406;-61
2023/04/24 05:08:41;;;;;;;7.20;5.65;;;10.10;99.90;;;;;;4986674;28;20528;-64
2023/04/24 05:11:27;;;;;;;7.03;5.32;;;10.20;99.90;;;;;;4966962;28;20066;-63
2023/04/24 05:14:07;;;;;;;6.85;5.90;;;10.20;99.90;;;;;;4967258;28;20046;-60
2023/04/24 05:16:53;;;;;;;6.93;5.30;;;9.90;99.90;;;;;;4966819;28;20050;-64
2023/04/24 05:19:35;;;;;;;8.73;6.22;;;9.90;99.90;;;;;;4982344;28;20085;-60
2023/04/24 05:22:28;;;;;;;9.43;5.85;;;9.90;99.90;;;;;;4985683;28;20284;-61
2023/04/24 05:25:15;;;;;;;8.38;5.70;;;9.90;99.90;;;;;;4967521;28;20474;-61
2023/04/24 05:27:54;;;;;;;7.32;5.63;;;10.10;99.90;;;;;;4946493;29;20085;-62
2023/04/24 05:30:41;;;;;;;6.97;4.95;;;10.00;99.90;;;;;;4967209;28;20062;-62
2023/04/24 05:33:20;;;;;;;8.07;5.50;;;9.90;99.90;;;;;;4969991;28;20222;-60
2023/04/24 05:36:07;;;;;;;7.07;6.28;;;10.00;99.90;;;;;;4970780;28;20047;-61
2023/04/24 05:38:46;;;;;;;6.55;5.40;;;9.90;99.90;;;;;;4971762;28;20122;-59
2023/04/24 05:41:32;;;;;;;8.82;6.00;;;9.90;99.90;;;;;;4934456;29;20114;-61
2023/04/24 05:44:12;;;;;;;6.60;5.20;;;9.80;99.90;;;;;;4934566;29;20047;-59
2023/04/24 05:46:59;;;;;;;7.10;5.38;;;10.00;99.90;;;;;;4951612;29;20122;-61
2023/04/24 05:49:38;;;;;;;6.72;4.57;;;9.90;99.90;;;;;;4957458;28;20051;-63
2023/04/24 05:52:24;;;;;;;8.57;4.80;;;9.80;99.90;;;;;;4969549;28;20069;-61
2023/04/24 05:55:05;;;;;;;7.05;4.80;;;9.90;99.90;;;;;;4969712;28;20146;-63
2023/04/24 05:57:51;;;;;;;6.88;3.72;;;9.80;99.90;;;;;;4971189;28;20051;-60
2023/04/24 06:00:32;;;;;;;6.93;4.38;;;9.80;99.90;;;;;;4970476;28;20230;-60
2023/04/24 06:03:18;;;;;;;5.30;4.15;;;10.00;99.90;;;;;;4970591;28;20054;-60
2023/04/24 06:05:57;;;;;;;6.45;4.38;;;9.80;99.90;;;;;;4970584;28;20051;-61
2023/04/24 06:08:45;;;;;;;6.45;4.20;;;9.90;99.90;;;;;;4950083;29;20527;-60
2023/04/24 06:11:24;;;;;;;5.90;4.13;;;9.90;99.90;;;;;;4934316;29;20336;-62
2023/04/24 06:14:10;;;;;;;5.55;4.30;;;10.00;99.90;;;;;;4951306;29;20130;-61
2023/04/24 06:16:50;;;;;;;6.90;4.03;;;9.80;99.90;;;;;;4935138;29;20150;-60
2023/04/24 06:19:37;;;;;;;5.38;3.70;;;9.80;99.90;;;;;;4972168;28;20050;-60
2023/04/24 06:22:16;;;;;;;6.97;4.72;;;10.00;99.90;;;;;;4970148;28;20060;-62
2023/04/24 06:25:09;;;;;;;6.78;4.55;;;10.00;99.90;;;;;;4985932;28;20112;-62
2023/04/24 06:27:56;;;;;;;5.80;4.35;;;9.90;99.90;;;;;;4994029;28;20053;-61
2023/04/24 06:30:36;;;;;;;4.97;4.15;;;9.90;99.90;;;;;;4990333;28;20046;-62
2023/04/24 06:33:23;;;;;;;6.45;4.13;;;9.90;99.90;;;;;;5009281;28;20085;-63
2023/04/24 06:36:03;;;;;;;6.50;4.45;;;9.90;99.90;;;;;;4985861;28;20267;-60
2023/04/24 06:38:50;;;;;;;6.57;4.50;;;9.70;99.90;;;;;;4952605;28;20046;-61
2023/04/24 06:41:29;;;;;;;8.13;5.15;;;9.70;99.90;;;;;;4991501;28;20570;-62
2023/04/24 06:44:16;;;;;;;10.88;5.38;;;9.90;99.90;;;;;;5004317;28;20050;-62
2023/04/24 06:46:55;;;;;;;9.60;5.95;;;9.90;99.90;;;;;;4969928;28;20141;-64
2023/04/24 06:49:42;;;;;;;9.45;5.30;;;9.80;99.90;;;;;;4995106;28;20064;-62
2023/04/24 06:52:21;;;;;;;8.32;5.93;;;9.70;99.90;;;;;;4999945;28;20454;-61
2023/04/24 06:55:08;;;;;;;8.20;5.55;;;9.70;99.90;;;;;;4988977;28;20081;-62
2023/04/24 06:57:47;;;;;;;7.78;5.70;;;9.80;99.90;;;;;;4971845;28;20085;-62
2023/04/24 07:00:34;;;;;;;8.80;5.18;;;9.70;99.90;;;;;;5014880;28;20042;-60
2023/04/24 07:03:13;;;;;;;7.22;4.85;;;9.60;99.90;;;;;;4989694;28;20047;-60
2023/04/24 07:06:00;;;;;;;8.82;5.65;;;9.60;99.90;;;;;;4988721;28;20458;-61
2023/04/24 07:08:41;;;;;;;7.00;4.88;;;9.60;99.90;;;;;;4951686;28;20058;-62
2023/04/24 07:11:29;;;;;;;7.03;5.22;;;9.60;99.90;;;;;;4969488;28;20109;-61
2023/04/24 07:14:08;;;;;;;7.90;4.47;;;9.70;99.90;;;;;;4952013;28;20166;-62
2023/04/24 07:16:56;;;;;;;7.13;4.32;;;9.60;99.90;;;;;;4969349;28;20055;-63
2023/04/24 07:19:36;;;;;;;6.40;4.30;;;9.70;99.90;;;;;;4979802;28;20050;-61
2023/04/24 07:22:23;;;;;;;5.65;4.10;;;9.60;99.90;;;;;;5002996;28;20050;-61
2023/04/24 07:25:02;;;;;;;7.28;4.03;;;9.70;99.90;;;;;;4988327;28;20100;-60
2023/04/24 07:27:49;;;;;;;5.53;4.13;;;9.80;99.90;;;;;;4987989;28;20046;-61
2023/04/24 07:30:29;;;;;;;7.30;4.50;;;9.70;99.90;;;;;;4988551;28;20050;-59
2023/04/24 07:33:15;;;;;;;7.70;3.88;;;9.80;99.90;;;;;;4987059;28;20064;-60
2023/04/24 07:35:54;;;;;;;6.32;4.57;;;9.70;99.90;;;;;;4988220;28;20043;-60
2023/04/24 07:38:42;;;;;;;6.38;4.00;;;9.70;99.90;;;;;;4987207;28;20290;-61
2023/04/24 07:41:21;;;;;;;8.10;5.38;;;9.70;99.90;;;;;;4986616;28;20074;-65
2023/04/24 07:44:08;;;;;;;9.05;5.82;;;9.70;99.90;;;;;;4986739;28;20521;-61
2023/04/24 07:46:47;;;;;;;11.30;6.03;;;9.70;99.90;;;;;;4988195;28;20129;-62
2023/04/24 07:49:34;;;;;;;12.07;7.55;;;9.70;99.90;;;;;;4987989;28;20085;-63
2023/04/24 07:52:14;;;;;;;18.77;11.52;;;9.70;99.90;;;;;;4987426;28;20061;-63
2023/04/24 07:55:02;;;;;;;17.95;11.18;;;9.70;99.90;;;;;;4987226;28;20054;-62
2023/04/24 07:57:41;;;;;;;21.52;11.88;;;9.50;99.90;;;;;;4988106;28;20133;-62
2023/04/24 08:00:28;;;;;;;23.50;15.18;;;9.60;99.90;;;;;;4978455;28;20053;-63
2023/04/24 08:03:07;;;;;;;23.58;14.18;;;9.40;99.90;;;;;;4988188;28;20083;-62
2023/04/24 08:05:54;;;;;;;18.83;11.30;;;9.40;99.90;;;;;;4986352;28;20061;-62
2023/04/24 08:08:34;;;;;;;20.23;13.07;;;9.40;99.90;;;;;;4987396;28;20430;-63
2023/04/24 08:11:21;;;;;;;24.73;12.02;;;9.40;99.90;;;;;;4985417;28;20120;-62
2023/04/24 08:14:00;;;;;;;21.80;13.82;;;9.30;99.90;;;;;;4987516;28;20137;-62
2023/04/24 08:16:47;;;;;;;23.95;14.70;;;9.30;99.90;;;;;;4988105;28;20050;-65
2023/04/24 08:19:26;;;;;;;23.33;12.88;;;9.30;99.90;;;;;;4985821;28;20291;-65
2023/04/24 08:22:14;;;;;;;20.27;13.90;;;9.20;99.90;;;;;;4987657;28;20065;-62
2023/04/24 08:24:53;;;;;;;19.83;11.40;;;9.30;99.90;;;;;;4969639;28;20490;-64
2023/04/24 08:27:40;;;;;;;20.55;13.88;;;9.20;99.90;;;;;;4970190;28;20093;-61
2023/04/24 08:30:20;;;;;;;21.00;13.75;;;9.00;99.90;;;;;;4992091;28;20535;-63
2023/04/24 08:33:06;;;;;;;21.33;12.45;;;9.00;99.90;;;;;;4985802;28;20690;-63
2023/04/24 08:35:46;;;;;;;17.08;11.82;;;9.00;99.90;;;;;;4987220;28;20061;-62
2023/04/24 08:38:33;;;;;;;22.02;12.38;;;8.90;99.90;;;;;;4986676;28;20050;-62
2023/04/24 08:41:15;;;;;;;17.60;11.15;;;9.00;99.90;;;;;;4987604;28;20162;-62
2023/04/24 08:44:02;;;;;;;21.23;12.57;;;9.00;99.90;;;;;;4987047;28;20178;-61
2023/04/24 08:46:42;;;;;;;17.38;11.02;;;9.10;99.90;;;;;;4987522;28;20121;-62
2023/04/24 08:49:30;;;;;;;15.57;10.50;;;9.00;99.90;;;;;;4986637;28;20050;-63
2023/04/24 08:52:12;;;;;;;17.05;11.75;;;9.00;99.90;;;;;;4987419;28;20065;-63
2023/04/24 08:55:01;;;;;;;14.00;10.63;;;9.10;99.90;;;;;;4986602;28;20069;-63
2023/04/24 08:57:40;;;;;;;13.43;9.30;;;9.10;99.90;;;;;;4987368;28;20093;-62
2023/04/24 09:00:27;;;;;;;17.17;10.60;;;9.20;99.90;;;;;;4987125;28;20058;-63
2023/04/24 09:03:06;;;;;;;16.15;9.82;;;9.20;99.90;;;;;;4987460;28;20142;-64
2023/04/24 09:05:55;;;;;;;17.45;9.73;;;9.20;99.90;;;;;;4986331;28;20065;-63
2023/04/24 09:08:35;;;;;;;13.95;9.73;;;9.20;99.90;;;;;;4982951;28;20062;-63
2023/04/24 09:11:24;;;;;;;16.10;9.30;;;9.10;99.90;;;;;;4986897;28;20058;-63
2023/04/24 09:14:03;;;;;;;14.82;8.30;;;9.40;99.90;;;;;;4985414;28;20138;-62
2023/04/24 09:16:50;;;;;;;13.85;8.52;;;9.40;99.90;;;;;;4971945;28;20076;-63
2023/04/24 09:19:30;;;;;;;14.80;7.85;;;9.60;99.90;;;;;;4984678;28;20058;-64
2023/04/24 09:22:18;;;;;;;12.15;6.22;;;9.70;99.90;;;;;;4953268;28;20046;-63
2023/04/24 09:25:12;;;;;;;9.20;6.82;;;9.80;99.90;;;;;;4969315;28;20051;-63
2023/04/24 09:28:02;;;;;;;12.07;7.50;;;9.80;99.90;;;;;;4980578;28;20061;-65
2023/04/24 09:30:41;;;;;;;9.45;6.03;;;9.80;99.90;;;;;;4963035;28;20557;-62
2023/04/24 09:33:28;;;;;;;10.82;6.30;;;9.80;99.90;;;;;;4968468;28;20101;-65
2023/04/24 09:36:07;;;;;;;12.05;6.93;;;9.90;99.90;;;;;;4973213;28;20098;-63
2023/04/24 09:38:58;;;;;;;9.93;5.18;;;9.90;99.90;;;;;;4948281;28;20110;-64
2023/04/24 09:41:38;;;;;;;11.20;5.68;;;9.80;99.90;;;;;;4914805;29;20055;-62
2023/04/24 09:44:27;;;;;;;7.25;5.28;;;9.80;99.90;;;;;;4947079;28;20117;-64
2023/04/24 09:47:06;;;;;;;7.97;5.45;;;9.80;99.90;;;;;;4947493;28;20058;-63
2023/04/24 09:49:58;;;;;;;12.35;5.35;;;9.80;99.90;;;;;;4968678;28;20049;-62
2023/04/24 09:52:37;;;;;;;9.27;5.60;;;9.70;99.90;;;;;;4984987;28;20082;-62
2023/04/24 09:55:25;;;;;;;9.80;4.22;;;9.60;99.90;;;;;;4953725;28;20066;-64
2023/04/24 09:58:04;;;;;;;10.32;4.30;;;9.40;99.90;;;;;;4985138;28;20145;-64
2023/04/24 10:00:32;;;;;;;8.13;3.65;;;9.40;99.90;;;;;;4963136;28;20176;-63
2023/04/24 10:03:01;;;;;;;9.02;4.18;;;9.30;99.90;;;;;;4989492;28;20462;-62
2023/04/24 10:05:32;;;;;;;7.68;3.60;;;9.20;99.90;;;;;;4989274;28;20066;-64
2023/04/24 10:08:05;;;;;;;8.68;3.95;;;9.20;99.90;;;;;;4988454;28;20129;-63
2023/04/24 10:10:33;;;;;;;7.20;3.88;;;9.20;99.90;;;;;;4976623;28;20054;-64
2023/04/24 10:13:00;;;;;;;9.63;4.13;;;9.20;99.90;;;;;;4967857;28;20062;-64
2023/04/24 10:15:27;;;;;;;10.43;4.30;;;9.30;99.90;;;;;;4967296;28;20054;-64
2023/04/24 10:17:54;;;;;;;8.98;3.72;;;9.30;99.90;;;;;;4969238;28;20097;-63
2023/04/24 10:20:22;;;;;;;10.27;4.82;;;9.40;99.90;;;;;;4982335;28;20256;-62
2023/04/24 10:22:51;;;;;;;11.65;3.72;;;9.40;99.90;;;;;;4993556;28;20054;-63
2023/04/24 10:25:20;;;;;;;10.23;4.53;;;9.50;99.90;;;;;;4993152;28;20085;-62
2023/04/24 10:27:47;;;;;;;7.57;3.88;;;9.60;99.90;;;;;;4975949;28;20157;-63
2023/04/24 10:30:14;;;;;;;9.65;3.97;;;9.60;99.90;;;;;;4983699;28;20465;-63
2023/04/24 10:32:40;;;;;;;12.38;5.03;;;9.60;99.90;;;;;;4973999;28;20051;-63
2023/04/24 10:35:08;;;;;;;10.55;4.07;;;9.60;99.90;;;;;;4973414;28;20082;-62
2023/04/24 10:37:54;;;;;;;8.88;3.90;;;9.70;99.90;;;;;;4974113;28;20566;-62
2023/04/24 10:40:27;;;;;;;8.23;3.88;;;9.70;99.90;;;;;;4984011;28;20054;-62
2023/04/24 10:42:55;;;;;;;11.25;4.55;;;9.80;99.90;;;;;;4993343;28;20094;-62
2023/04/24 10:45:23;;;;;;;8.90;3.10;;;10.10;99.90;;;;;;4993051;28;20453;-62
2023/04/24 10:48:10;;;;;;;10.80;3.30;;;10.10;99.90;;;;;;4975887;28;20137;-61
2023/04/24 10:50:45;;;;;;;7.57;2.88;;;10.10;99.90;;;;;;4980502;28;20154;-65
2023/04/24 10:53:17;;;;;;;5.38;2.50;;;10.20;99.90;;;;;;4972050;28;20142;-63
2023/04/24 10:55:57;;;;;;;8.00;2.50;;;10.20;99.90;;;;;;4972642;28;20054;-63
2023/04/24 10:58:24;;;;;;;7.68;2.92;;;10.30;99.90;;;;;;4973907;28;20075;-65
2023/04/24 11:00:59;;;;;;;6.82;2.83;;;10.20;99.90;;;;;;4987595;28;20254;-64
2023/04/24 11:03:32;;;;;;;7.78;2.88;;;10.30;99.90;;;;;;4974913;28;20085;-64
2023/04/24 11:06:00;;;;;;;8.45;2.67;;;10.30;99.90;;;;;;4992902;28;20092;-64
2023/04/24 11:08:27;;;;;;;9.27;2.83;;;10.40;99.90;;;;;;4992840;28;20398;-64
2023/04/24 11:11:02;;;;;;;6.82;2.45;;;10.40;99.90;;;;;;4978231;28;20126;-65
2023/04/24 11:13:53;;;;;;;5.72;2.45;;;10.40;99.90;;;;;;4972479;28;20047;-65
2023/04/24 11:16:22;;;;;;;8.10;2.30;;;10.30;99.90;;;;;;4973196;28;20101;-63
2023/04/24 11:19:23;;;;;;;8.77;2.67;;;10.30;99.90;;;;;;4973276;28;20085;-64
2023/04/24 11:22:04;;;;;;;9.50;2.58;;;10.30;99.90;;;;;;4917462;29;20083;-64
2023/04/24 11:24:39;;;;;;;6.72;2.80;;;10.30;99.90;;;;;;4945076;29;20082;-63
2023/04/24 11:27:13;;;;;;;7.72;2.33;;;10.30;99.90;;;;;;4953673;29;20221;-64
2023/04/24 11:29:42;;;;;;;7.03;2.95;;;10.30;99.90;;;;;;4957777;28;20142;-63
2023/04/24 11:32:28;;;;;;;6.50;2.60;;;10.20;99.90;;;;;;4972781;28;20055;-64
2023/04/24 11:34:57;;;;;;;7.50;2.30;;;10.10;99.90;;;;;;4971428;28;20142;-63
2023/04/24 11:37:27;;;;;;;8.32;2.72;;;10.00;99.90;;;;;;4972659;28;20061;-64
2023/04/24 11:39:55;;;;;;;7.47;2.40;;;9.90;99.90;;;;;;4972398;28;20485;-64
2023/04/24 11:42:23;;;;;;;6.97;2.22;;;9.90;99.90;;;;;;4955423;28;20158;-65
2023/04/24 11:44:55;;;;;;;3.40;1.83;;;9.80;99.90;;;;;;4955191;28;20129;-64
2023/04/24 11:47:33;;;;;;;5.65;2.10;;;9.80;99.90;;;;;;4972532;28;20069;-62
2023/04/24 11:50:00;;;;;;;5.05;2.13;;;9.80;99.90;;;;;;4972251;28;20186;-64
2023/04/24 11:52:27;;;;;;;5.03;1.63;;;9.80;99.90;;;;;;4972356;28;20078;-63
2023/04/24 11:54:53;;;;;;;5.65;1.98;;;9.80;99.90;;;;;;4970603;28;20055;-63
2023/04/24 11:57:21;;;;;;;5.47;2.08;;;9.80;99.90;;;;;;4971341;28;20046;-62
2023/04/24 11:59:48;;;;;;;6.57;2.03;;;9.80;99.90;;;;;;4972191;28;20061;-62
2023/04/24 12:02:24;;;;;;;6.80;2.20;;;9.80;99.90;;;;;;4972491;28;20093;-64
2023/04/24 12:04:52;;;;;;;4.35;1.98;;;10.00;99.90;;;;;;4972002;28;20054;-64
2023/04/24 12:07:18;;;;;;;5.25;1.73;;;10.00;99.90;;;;;;4972088;28;20125;-62
2023/04/24 12:09:48;;;;;;;6.43;2.05;;;10.20;99.90;;;;;;4972425;28;20129;-63
2023/04/24 12:12:18;;;;;;;4.85;2.10;;;10.30;99.90;;;;;;4972534;28;20513;-63
2023/04/24 12:14:48;;;;;;;6.80;2.38;;;10.40;99.90;;;;;;4971783;28;20463;-64
2023/04/24 12:17:16;;;;;;;4.10;1.77;;;10.50;99.90;;;;;;4972343;28;20073;-62
2023/04/24 12:19:47;;;;;;;4.78;1.55;;;10.40;99.90;;;;;;4969592;28;20097;-64
2023/04/24 12:22:14;;;;;;;6.65;2.28;;;10.20;99.90;;;;;;4971950;28;20421;-64
2023/04/24 12:24:57;;;;;;;4.43;2.03;;;10.00;99.90;;;;;;4985131;28;20141;-62
2023/04/24 12:27:23;;;;;;;3.38;1.55;;;9.90;99.90;;;;;;4991608;28;20082;-63
2023/04/24 12:29:57;;;;;;;6.25;1.60;;;9.90;99.90;;;;;;4985827;28;20057;-64
2023/04/24 12:32:25;;;;;;;5.38;1.90;;;9.80;99.90;;;;;;4972013;28;20133;-63
2023/04/24 12:34:52;;;;;;;4.85;1.83;;;9.70;99.90;;;;;;4954086;28;20046;-62
2023/04/24 12:37:19;;;;;;;9.00;2.00;;;9.60;99.90;;;;;;4970387;28;20117;-64
2023/04/24 12:40:09;;;;;;;6.85;2.00;;;9.60;99.90;;;;;;4976246;28;20073;-64
2023/04/24 12:42:41;;;;;;;4.57;2.42;;;9.60;99.90;;;;;;4990946;28;20050;-63
2023/04/24 12:45:08;;;;;;;6.47;2.08;;;9.70;99.90;;;;;;4990816;28;20058;-62
2023/04/24 12:47:35;;;;;;;7.53;2.00;;;9.80;99.90;;;;;;4990823;28;20138;-63
2023/04/24 12:50:02;;;;;;;4.20;1.55;;;9.90;99.90;;;;;;4984023;28;20046;-64
2023/04/24 12:52:29;;;;;;;5.43;2.40;;;9.90;99.90;;;;;;4971583;28;20057;-63
2023/04/24 12:54:58;;;;;;;6.03;1.55;;;10.00;99.90;;;;;;4969894;28;20112;-63
2023/04/24 12:57:25;;;;;;;5.93;2.10;;;10.00;99.90;;;;;;4971538;28;20082;-62
2023/04/24 12:59:54;;;;;;;5.63;1.90;;;10.00;99.90;;;;;;4976687;28;20085;-63
2023/04/24 13:02:22;;;;;;;5.55;2.20;;;10.00;99.90;;;;;;4973460;28;20065;-64
2023/04/24 13:04:49;;;;;;;4.68;1.40;;;10.00;99.90;;;;;;4973019;28;20386;-64
2023/04/24 13:07:16;;;;;;;4.40;1.70;;;10.10;99.90;;;;;;4991020;28;20057;-62
2023/04/24 13:09:43;;;;;;;1.85;1.30;;;10.10;99.90;;;;;;4986831;28;20093;-63
2023/04/24 13:12:11;;;;;;;2.65;1.20;;;10.10;99.90;;;;;;4971050;28;20121;-64
2023/04/24 13:14:38;;;;;;;2.75;1.48;;;10.10;99.90;;;;;;4969941;28;20094;-62
2023/04/24 13:17:05;;;;;;;5.18;1.60;;;10.10;99.90;;;;;;4971046;28;20046;-63
2023/04/24 13:19:36;;;;;;;4.40;1.92;;;10.10;99.90;;;;;;4973350;28;20193;-65
2023/04/24 13:22:03;;;;;;;3.65;1.48;;;10.00;99.90;;;;;;4990844;28;20082;-63
2023/04/24 13:24:31;;;;;;;4.45;1.38;;;10.10;99.90;;;;;;4972759;28;20150;-64
2023/04/24 13:26:58;;;;;;;5.10;1.38;;;10.10;99.90;;;;;;4973324;28;20140;-65
2023/04/24 13:29:24;;;;;;;4.13;1.58;;;10.10;99.90;;;;;;4989383;28;20058;-66
2023/04/24 13:31:51;;;;;;;4.80;1.63;;;10.10;99.90;;;;;;4971302;28;20138;-65
2023/04/24 13:34:18;;;;;;;5.65;1.60;;;10.10;99.90;;;;;;4969375;28;20474;-64
2023/04/24 13:36:44;;;;;;;3.90;1.85;;;10.10;99.90;;;;;;4971417;28;20093;-63
2023/04/24 13:39:11;;;;;;;6.00;2.40;;;10.00;99.90;;;;;;4971157;28;20070;-65
2023/04/24 13:41:37;;;;;;;5.65;1.90;;;9.80;99.90;;;;;;4971552;28;20093;-64
2023/04/24 13:44:04;;;;;;;7.07;2.50;;;9.70;99.90;;;;;;4970957;28;20093;-64
2023/04/24 13:46:31;;;;;;;6.70;2.65;;;9.70;99.90;;;;;;4971405;28;20146;-64
2023/04/24 13:48:57;;;;;;;6.47;3.60;;;9.60;99.90;;;;;;4971017;28;20082;-64
2023/04/24 13:51:26;;;;;;;8.95;2.45;;;9.60;99.90;;;;;;4987826;28;20136;-64
2023/04/24 13:53:53;;;;;;;9.32;2.42;;;9.60;99.90;;;;;;4991640;28;20073;-65